Time;durP1;ratioP1;P1;durP2;ratioP2;P2;SDS_P1;SDS_P2;PMS_P1;PMS_P2;Temp;Humidity;BMP_temperature;BMP_pressure;BME280_temperature;BME280_humidity;BME280_pressure;Samples;Min_cycle;Max_cycle;Signal;HPM_P1;HPM_P2
2023/03/22 00:01:14;;;;;;;12.73;10.60;;;12.40;85.70;;;14.66;59.78;100855.53;5095463;28;20228;-56
2023/03/22 00:03:41;;;;;;;12.70;10.43;;;12.30;85.60;;;14.62;59.52;100853.47;5104093;28;20284;-56
2023/03/22 00:06:09;;;;;;;11.90;10.70;;;12.30;85.80;;;14.56;60.05;100849.78;5109883;28;20541;-54
2023/03/22 00:08:37;;;;;;;12.37;10.53;;;12.30;85.90;;;14.55;60.11;100836.72;5122298;27;20555;-56
2023/03/22 00:11:06;;;;;;;12.57;10.97;;;12.20;85.80;;;14.57;60.20;100835.50;5122152;27;20192;-55
2023/03/22 00:13:36;;;;;;;11.97;10.80;;;12.20;85.90;;;14.55;59.85;100836.72;5107409;28;20606;-55
2023/03/22 00:16:04;;;;;;;12.43;10.30;;;12.20;86.00;;;14.49;60.04;100825.09;5095196;28;20223;-56
2023/03/22 00:18:31;;;;;;;14.13;10.47;;;12.10;86.10;;;14.47;59.99;100828.97;5096068;28;20177;-56
2023/03/22 00:20:59;;;;;;;10.70;9.70;;;12.10;86.00;;;14.45;60.18;100818.56;5095341;28;20700;-56
2023/03/22 00:23:28;;;;;;;11.20;10.10;;;12.10;86.10;;;14.43;60.09;100812.63;5095275;28;20746;-56
2023/03/22 00:25:55;;;;;;;12.87;10.70;;;12.10;86.30;;;14.41;60.58;100817.31;5113133;28;20207;-55
2023/03/22 00:28:23;;;;;;;11.00;9.83;;;12.00;86.30;;;14.38;60.29;100808.97;5114317;28;20198;-56
2023/03/22 00:30:53;;;;;;;13.70;11.17;;;12.00;86.40;;;14.40;60.12;100818.34;5115052;28;20640;-57
2023/03/22 00:33:21;;;;;;;10.33;9.30;;;12.00;86.50;;;14.43;60.04;100812.63;5114060;28;20286;-56
2023/03/22 00:35:50;;;;;;;11.90;10.70;;;12.00;86.50;;;14.40;60.33;100807.75;5114952;28;20203;-57
2023/03/22 00:38:17;;;;;;;12.50;9.80;;;12.00;86.60;;;14.41;60.20;100805.91;5115392;28;20206;-54
2023/03/22 00:40:46;;;;;;;11.97;10.77;;;12.00;86.60;;;14.42;60.24;100811.00;5115357;28;20227;-56
2023/03/22 00:43:14;;;;;;;11.60;10.40;;;12.00;86.70;;;14.45;60.31;100805.34;5110241;28;20217;-55
2023/03/22 00:45:43;;;;;;;11.57;10.37;;;12.00;86.70;;;14.40;60.13;100813.06;5101794;28;20203;-57
2023/03/22 00:48:11;;;;;;;15.13;10.90;;;12.00;86.70;;;14.36;60.49;100809.13;5103061;28;20197;-57
2023/03/22 00:50:38;;;;;;;13.43;11.80;;;12.00;86.80;;;14.35;60.56;100802.22;5094855;28;20207;-57
2023/03/22 00:53:06;;;;;;;11.13;9.83;;;11.90;86.70;;;14.40;60.46;100801.63;5118131;27;20213;-55
2023/03/22 00:55:33;;;;;;;10.90;9.83;;;12.00;86.70;;;14.41;60.25;100792.66;5135394;27;20535;-58
2023/03/22 00:58:00;;;;;;;11.07;9.97;;;12.00;86.80;;;14.40;60.22;100778.63;5135642;27;20198;-58
2023/03/22 01:00:27;;;;;;;11.33;10.23;;;12.00;86.70;;;14.41;60.22;100788.19;5135384;27;20207;-56
2023/03/22 01:02:58;;;;;;;12.93;10.73;;;12.00;87.50;;;14.41;60.16;100787.34;5117206;27;20223;-55
2023/03/22 01:05:27;;;;;;;12.40;11.20;;;11.90;86.70;;;14.37;60.46;100784.31;5096098;28;20203;-57
2023/03/22 01:07:54;;;;;;;15.03;11.13;;;11.90;86.80;;;14.37;60.51;100781.66;5109490;27;20199;-55
2023/03/22 01:10:21;;;;;;;13.93;11.57;;;12.00;86.80;;;14.38;60.50;100777.97;5126611;27;20206;-60
2023/03/22 01:12:48;;;;;;;13.87;12.30;;;11.90;86.80;;;14.35;60.63;100781.03;5113743;28;20192;-55
2023/03/22 01:15:16;;;;;;;12.20;10.67;;;11.90;86.90;;;14.39;60.34;100779.63;5114498;28;20237;-55
2023/03/22 01:17:43;;;;;;;12.90;11.40;;;11.90;86.90;;;14.34;60.71;100787.34;5113367;28;20200;-55
2023/03/22 01:20:12;;;;;;;16.93;11.80;;;11.90;87.00;;;14.39;60.58;100778.81;5095541;28;20212;-56
2023/03/22 01:22:39;;;;;;;12.73;11.37;;;12.00;87.10;;;14.42;60.39;100779.22;5099765;28;20219;-54
2023/03/22 01:25:08;;;;;;;12.93;11.57;;;12.00;87.10;;;14.37;60.50;100772.88;5094232;28;20201;-57
2023/03/22 01:27:35;;;;;;;12.47;11.23;;;11.90;87.10;;;14.41;60.62;100772.28;5094260;28;20185;-57
2023/03/22 01:30:03;;;;;;;12.37;11.10;;;12.00;87.20;;;14.47;60.55;100768.03;5094327;28;20188;-55
2023/03/22 01:32:30;;;;;;;14.43;11.77;;;12.00;87.20;;;14.41;60.66;100761.69;5094145;28;20199;-55
2023/03/22 01:34:57;;;;;;;14.00;11.07;;;12.00;87.20;;;14.41;60.73;100756.41;5110026;28;20220;-55
2023/03/22 01:37:26;;;;;;;16.87;11.30;;;12.00;87.20;;;14.43;60.50;100750.94;5114438;28;20195;-57
2023/03/22 01:39:54;;;;;;;12.67;11.37;;;12.00;87.10;;;14.43;60.54;100754.38;5114190;28;20210;-57
2023/03/22 01:42:22;;;;;;;13.67;12.00;;;12.00;87.10;;;14.40;60.76;100749.50;5113359;28;20195;-54
2023/03/22 01:45:36;;;;;;;13.80;11.90;;;12.00;87.20;;;14.39;60.58;100747.03;5114222;28;20269;-55
2023/03/22 01:48:20;;;;;;;12.97;11.77;;;12.00;87.20;;;14.40;60.51;100744.19;5099995;28;20486;-55
2023/03/22 01:51:01;;;;;;;12.30;11.07;;;12.00;87.20;;;14.40;60.56;100738.91;5094020;28;20271;-59
2023/03/22 01:53:35;;;;;;;13.17;11.47;;;12.00;87.30;;;14.42;60.86;100736.88;5122316;27;20203;-57
2023/03/22 01:56:03;;;;;;;15.23;11.77;;;12.10;87.20;;;14.47;60.77;100729.13;5135059;27;20182;-54
2023/03/22 01:58:35;;;;;;;13.17;11.77;;;12.10;87.30;;;14.46;60.64;100724.84;5134541;27;20187;-55
2023/03/22 02:01:05;;;;;;;11.90;10.70;;;12.10;87.60;;;14.50;60.88;100727.94;5133871;27;20221;-55
2023/03/22 02:03:44;;;;;;;12.63;11.30;;;12.10;87.20;;;14.51;60.78;100725.06;5093084;28;20247;-55
2023/03/22 02:06:11;;;;;;;13.07;10.57;;;12.10;87.10;;;14.58;60.49;100725.91;5093274;28;20203;-57
2023/03/22 02:08:39;;;;;;;13.03;11.83;;;12.10;87.00;;;14.60;60.14;100713.25;5118483;28;20214;-56
2023/03/22 02:11:12;;;;;;;12.80;11.03;;;12.10;87.00;;;14.60;60.28;100713.25;5113732;28;20219;-54
2023/03/22 02:14:14;;;;;;;11.43;10.23;;;12.10;86.80;;;14.62;60.05;100716.53;5113681;28;20610;-57
2023/03/22 02:16:57;;;;;;;15.50;11.70;;;12.20;86.90;;;14.69;59.84;100719.22;5113471;28;20195;-54
2023/03/22 02:20:29;;;;;;;14.03;12.20;;;12.10;86.80;;;14.63;60.07;100707.56;5105954;28;20199;-54
2023/03/22 02:23:49;;;;;;;12.83;11.40;;;12.20;86.90;;;14.58;60.21;100710.00;5096594;28;20227;-56
2023/03/22 02:26:50;;;;;;;12.87;11.27;;;12.20;86.90;;;14.59;60.06;100711.66;5113433;28;20578;-57
2023/03/22 02:29:31;;;;;;;12.63;11.13;;;12.20;86.90;;;14.66;60.12;100711.66;5106842;28;20537;-57
2023/03/22 02:32:37;;;;;;;12.57;11.47;;;12.20;86.80;;;14.65;60.00;100710.81;5093621;28;20188;-54
2023/03/22 02:35:32;;;;;;;11.80;10.63;;;12.20;86.70;;;14.63;60.07;100707.56;5109322;28;20564;-60
2023/03/22 02:38:42;;;;;;;11.67;10.47;;;12.20;86.70;;;14.70;60.06;100708.41;5112824;28;20257;-55
2023/03/22 02:41:15;;;;;;;14.47;11.80;;;12.30;86.80;;;14.77;59.93;100711.03;5112669;28;20199;-57
2023/03/22 02:44:00;;;;;;;12.93;11.67;;;12.30;86.70;;;14.79;60.16;100704.53;5112780;28;20222;-57
2023/03/22 02:46:36;;;;;;;11.87;10.60;;;12.30;86.70;;;14.85;59.96;100708.22;5117160;28;20195;-56
2023/03/22 02:49:15;;;;;;;11.87;10.67;;;12.30;86.50;;;14.85;59.91;100702.91;5112813;28;20266;-56
2023/03/22 02:51:49;;;;;;;12.93;11.17;;;12.40;86.50;;;14.92;59.54;100701.06;5096747;28;20184;-57
2023/03/22 02:54:25;;;;;;;13.53;10.77;;;12.40;86.30;;;14.99;59.58;100707.19;5122408;27;20893;-55
2023/03/22 02:57:00;;;;;;;11.90;10.00;;;12.40;86.20;;;15.05;59.07;100705.56;5117445;28;20202;-56
2023/03/22 02:59:32;;;;;;;12.37;11.07;;;12.50;86.20;;;15.01;59.06;100699.03;5116329;28;20209;-57
2023/03/22 03:02:03;;;;;;;13.50;11.23;;;12.50;85.80;;;15.00;58.89;100700.06;5115727;28;20222;-56
2023/03/22 03:04:37;;;;;;;12.57;10.27;;;12.50;85.60;;;15.04;58.91;100694.16;5117096;28;20208;-56
2023/03/22 03:07:10;;;;;;;10.43;9.27;;;12.50;85.50;;;15.06;58.69;100692.09;5117459;27;20187;-55
2023/03/22 03:09:42;;;;;;;13.50;9.90;;;12.60;85.40;;;15.12;58.93;100690.47;5130786;27;20641;-55
2023/03/22 03:12:13;;;;;;;10.03;8.97;;;12.60;85.20;;;15.18;58.55;100684.34;5116060;28;20210;-57
2023/03/22 03:14:41;;;;;;;12.20;10.10;;;12.60;85.10;;;15.23;58.20;100690.66;5116678;28;20231;-57
2023/03/22 03:17:23;;;;;;;8.60;7.83;;;12.70;85.10;;;15.31;58.01;100690.44;5116696;28;20560;-55
2023/03/22 03:20:09;;;;;;;10.70;8.83;;;12.70;85.10;;;15.37;57.99;100689.63;5116690;28;20256;-56
2023/03/22 03:22:52;;;;;;;10.90;9.27;;;12.70;85.00;;;15.39;57.79;100687.56;5116168;28;20287;-55
2023/03/22 03:25:37;;;;;;;10.90;9.40;;;12.70;84.80;;;15.39;57.34;100687.56;5115843;28;20705;-57
2023/03/22 03:28:12;;;;;;;10.70;9.60;;;12.80;84.60;;;15.33;57.73;100682.28;5096405;28;20192;-56
2023/03/22 03:30:48;;;;;;;14.37;9.93;;;12.80;84.40;;;15.31;57.60;100684.31;5096659;28;20187;-57
2023/03/22 03:33:21;;;;;;;12.77;9.53;;;12.80;84.30;;;15.25;57.85;100687.81;5097485;28;20215;-59
2023/03/22 03:35:55;;;;;;;11.37;9.17;;;12.80;84.30;;;15.21;58.06;100681.28;5116813;28;20188;-56
2023/03/22 03:38:27;;;;;;;11.10;8.97;;;12.80;84.10;;;15.20;58.02;100687.59;5116834;28;20180;-54
2023/03/22 03:41:02;;;;;;;13.20;9.70;;;12.80;84.10;;;15.21;57.95;100686.59;5115677;28;20265;-57
2023/03/22 03:43:30;;;;;;;11.50;10.30;;;12.80;84.10;;;15.19;58.01;100681.47;5115936;28;20207;-57
2023/03/22 03:45:58;;;;;;;11.57;8.60;;;12.80;84.10;;;15.17;58.18;100693.31;5116667;28;20188;-54
2023/03/22 03:48:32;;;;;;;12.57;10.53;;;12.80;84.10;;;15.17;58.04;100678.22;5116223;28;20708;-57
2023/03/22 03:51:01;;;;;;;10.53;8.90;;;12.80;84.10;;;15.19;58.05;100686.78;5099927;28;20256;-56
2023/03/22 03:53:29;;;;;;;11.30;8.90;;;12.80;84.00;;;15.24;57.94;100680.84;5112476;27;20262;-55
2023/03/22 03:55:57;;;;;;;10.53;9.47;;;12.80;84.00;;;15.28;57.45;100680.25;5119999;27;20187;-55
2023/03/22 03:58:24;;;;;;;11.00;9.33;;;12.80;84.00;;;15.29;57.71;100676.56;5115960;28;20275;-54
2023/03/22 04:00:51;;;;;;;10.27;8.37;;;12.70;83.80;;;15.32;57.83;100672.69;5101189;28;20216;-56
2023/03/22 04:03:18;;;;;;;10.87;8.80;;;12.70;83.90;;;15.35;57.46;100669.63;5095037;28;20215;-57
2023/03/22 04:05:45;;;;;;;11.47;9.13;;;12.80;83.90;;;15.34;57.40;100674.13;5095578;28;20196;-55
2023/03/22 04:08:12;;;;;;;10.50;9.47;;;12.80;83.80;;;15.35;57.28;100673.09;5115468;27;20265;-57
2023/03/22 04:10:39;;;;;;;10.73;9.47;;;12.80;83.70;;;15.31;57.62;100676.34;5116084;27;20204;-56
2023/03/22 04:13:08;;;;;;;12.17;9.20;;;12.80;83.70;;;15.22;57.37;100670.47;5115057;28;20215;-56
2023/03/22 04:15:35;;;;;;;11.80;8.23;;;12.70;83.40;;;15.20;57.98;100675.16;5115720;28;20513;-57
2023/03/22 04:18:02;;;;;;;10.33;9.13;;;12.80;83.80;;;15.25;57.72;100663.94;5115780;28;20192;-55
2023/03/22 04:20:29;;;;;;;11.30;8.93;;;12.80;83.60;;;15.23;57.37;100672.09;5111501;28;20192;-57
2023/03/22 04:22:56;;;;;;;10.90;8.27;;;12.70;83.30;;;15.20;57.63;100671.69;5115091;28;20230;-57
2023/03/22 04:25:28;;;;;;;8.67;7.77;;;12.80;83.30;;;15.23;57.40;100665.97;5095564;28;20196;-54
2023/03/22 04:27:55;;;;;;;10.67;8.63;;;12.70;83.20;;;15.19;57.14;100659.47;5094985;28;20199;-55
2023/03/22 04:30:26;;;;;;;10.33;8.30;;;12.70;83.10;;;15.15;57.23;100655.59;5105165;28;20376;-55
2023/03/22 04:32:53;;;;;;;9.10;7.50;;;12.70;83.10;;;15.15;57.45;100658.22;5113727;28;20282;-57
2023/03/22 04:35:21;;;;;;;11.63;9.50;;;12.70;83.00;;;15.16;57.35;100662.53;5115494;28;20188;-55
2023/03/22 04:37:48;;;;;;;11.43;8.37;;;12.80;83.20;;;15.15;57.47;100655.59;5114820;28;20191;-57
2023/03/22 04:40:16;;;;;;;11.43;8.43;;;12.70;82.90;;;15.16;57.19;100649.28;5106378;28;20664;-56
2023/03/22 04:42:44;;;;;;;11.87;8.23;;;12.70;82.90;;;15.21;57.17;100650.28;5094605;28;20215;-57
2023/03/22 04:45:12;;;;;;;10.67;7.40;;;12.80;83.00;;;15.21;57.01;100652.13;5094630;28;20196;-56
2023/03/22 04:47:41;;;;;;;10.07;7.40;;;12.80;83.00;;;15.24;57.35;100641.06;5094894;28;20192;-54
2023/03/22 04:50:09;;;;;;;9.93;7.10;;;12.80;82.80;;;15.24;57.14;100647.19;5102107;28;20203;-56
2023/03/22 04:52:35;;;;;;;11.00;7.87;;;12.80;83.60;;;15.22;57.05;100643.13;5111246;27;20188;-57
2023/03/22 04:55:03;;;;;;;9.13;7.23;;;12.80;82.80;;;15.20;57.16;100640.69;5135412;27;20183;-56
2023/03/22 04:57:30;;;;;;;9.13;7.30;;;12.70;82.60;;;15.18;56.96;100636.63;5135531;27;20191;-57
2023/03/22 04:59:57;;;;;;;11.73;8.10;;;12.80;82.70;;;15.21;57.03;100644.16;5123577;27;20244;-56
2023/03/22 05:02:24;;;;;;;9.87;7.80;;;12.70;82.60;;;15.22;56.80;100643.13;5094170;28;20216;-55
2023/03/22 05:04:52;;;;;;;8.77;7.20;;;12.70;82.60;;;15.21;56.81;100642.34;5094195;28;20688;-55
2023/03/22 05:07:20;;;;;;;11.20;8.10;;;12.70;82.60;;;15.18;57.25;100642.75;5111132;27;20261;-56
2023/03/22 05:09:47;;;;;;;8.67;6.57;;;12.70;82.60;;;15.17;57.03;100642.94;5129336;27;20187;-58
2023/03/22 05:12:14;;;;;;;8.33;6.67;;;12.70;82.60;;;15.14;57.32;100641.50;5109412;28;20295;-56
2023/03/22 05:14:41;;;;;;;10.77;7.73;;;12.70;82.70;;;15.15;57.18;100639.66;5094159;28;20209;-56
2023/03/22 05:17:08;;;;;;;9.37;7.47;;;12.70;82.80;;;15.14;57.10;100640.72;5107952;28;20294;-54
2023/03/22 05:19:35;;;;;;;9.10;7.27;;;12.70;82.80;;;15.13;57.36;100628.47;5111130;28;20200;-56
2023/03/22 05:22:03;;;;;;;9.03;7.83;;;12.70;82.90;;;15.07;57.22;100624.00;5103727;28;20687;-57
2023/03/22 05:24:30;;;;;;;9.40;7.50;;;12.60;82.80;;;15.06;57.40;100622.34;5113346;28;20257;-57
2023/03/22 05:26:59;;;;;;;9.93;7.43;;;12.60;82.80;;;15.07;57.47;100622.13;5115236;28;20833;-58
2023/03/22 05:29:27;;;;;;;9.87;7.80;;;12.60;82.80;;;15.06;57.01;100625.00;5113178;28;20216;-60
2023/03/22 05:31:54;;;;;;;10.33;7.70;;;12.60;82.80;;;15.07;57.31;100622.13;5096987;28;20188;-54
2023/03/22 05:34:21;;;;;;;8.27;6.80;;;12.60;82.80;;;15.04;57.44;100619.94;5105274;28;20205;-55
2023/03/22 05:36:50;;;;;;;11.50;8.03;;;12.60;82.80;;;15.05;57.38;100621.53;5094655;28;20204;-56
2023/03/22 05:39:19;;;;;;;9.07;8.17;;;12.60;82.80;;;15.07;57.14;100624.00;5097065;28;20202;-57
2023/03/22 05:41:46;;;;;;;9.67;7.77;;;12.60;82.80;;;15.06;57.38;100615.22;5093467;28;20215;-57
2023/03/22 05:44:13;;;;;;;10.27;7.83;;;12.60;82.80;;;15.06;57.45;100601.16;5093093;28;20216;-56
2023/03/22 05:46:40;;;;;;;8.03;7.33;;;12.60;82.80;;;15.09;57.29;100600.75;5100162;28;20200;-57
2023/03/22 05:49:07;;;;;;;11.37;7.73;;;12.60;82.80;;;15.09;57.12;100595.44;5114109;28;20271;-57
2023/03/22 05:51:40;;;;;;;10.80;7.73;;;12.60;82.70;;;15.09;57.17;100606.88;5095646;28;20196;-56
2023/03/22 05:54:08;;;;;;;10.17;7.87;;;12.70;82.80;;;15.18;57.25;100604.81;5121895;27;20283;-56
2023/03/22 05:56:38;;;;;;;8.53;7.23;;;12.70;82.60;;;15.15;57.28;100605.22;5134866;27;20203;-56
2023/03/22 05:59:05;;;;;;;10.53;8.37;;;12.70;82.70;;;15.16;57.02;100606.84;5134683;27;20696;-58
2023/03/22 06:01:32;;;;;;;9.67;8.10;;;12.70;82.70;;;15.19;57.00;100601.13;5107996;27;20273;-57
2023/03/22 06:04:00;;;;;;;10.30;8.57;;;12.70;82.60;;;15.18;57.36;100602.16;5113795;28;20239;-55
2023/03/22 06:06:27;;;;;;;11.63;9.40;;;12.80;82.80;;;15.24;57.01;100603.94;5114504;28;20221;-55
2023/03/22 06:08:54;;;;;;;12.70;9.73;;;12.80;82.80;;;15.22;57.24;100601.53;5130044;28;20602;-58
2023/03/22 06:11:41;;;;;;;11.13;9.93;;;12.80;82.80;;;15.23;57.21;100599.69;5114737;27;20266;-56
2023/03/22 06:14:08;;;;;;;11.63;10.10;;;12.80;82.70;;;15.20;57.36;100594.78;5114136;28;20226;-56
2023/03/22 06:16:35;;;;;;;12.97;10.97;;;12.80;82.90;;;15.26;57.35;100586.03;5107786;28;20534;-56
2023/03/22 06:19:02;;;;;;;10.90;9.47;;;12.90;82.90;;;15.30;57.33;100592.53;5114763;28;20218;-58
2023/03/22 06:21:29;;;;;;;10.47;9.40;;;12.90;82.80;;;15.36;57.31;100591.69;5118065;28;20543;-56
2023/03/22 06:23:56;;;;;;;14.37;11.17;;;13.00;82.90;;;15.38;57.21;100590.44;5134314;27;20261;-55
2023/03/22 06:26:24;;;;;;;12.67;10.13;;;12.90;82.70;;;15.42;57.35;100593.50;5118649;27;20233;-57
2023/03/22 06:28:52;;;;;;;14.93;10.13;;;13.00;82.80;;;15.44;57.27;100584.34;5119189;28;20290;-54
2023/03/22 06:31:19;;;;;;;11.43;10.07;;;13.00;82.60;;;15.43;57.22;100587.16;5104516;28;20236;-57
2023/03/22 06:33:46;;;;;;;11.90;10.20;;;13.00;82.60;;;15.49;56.88;100586.38;5106736;28;20222;-55
2023/03/22 06:36:13;;;;;;;10.80;9.70;;;13.10;82.70;;;15.56;57.02;100584.50;5125932;28;20184;-57
2023/03/22 06:38:40;;;;;;;13.97;9.67;;;13.10;82.50;;;15.64;56.72;100584.28;5117689;28;20188;-56
2023/03/22 06:41:08;;;;;;;13.67;10.80;;;13.20;82.40;;;15.71;56.75;100582.41;5116663;28;20206;-56
2023/03/22 06:43:35;;;;;;;12.60;10.10;;;13.20;82.40;;;15.72;56.27;100591.16;5117176;28;20231;-58
2023/03/22 06:46:04;;;;;;;15.30;10.40;;;13.20;82.10;;;15.80;56.23;100583.78;5097162;28;20193;-57
2023/03/22 06:48:31;;;;;;;15.17;10.50;;;13.30;82.00;;;15.79;56.27;100576.84;5097081;28;20199;-58
2023/03/22 06:50:58;;;;;;;12.43;11.03;;;13.30;81.90;;;15.83;56.32;100577.25;5108366;28;20192;-57
2023/03/22 06:53:25;;;;;;;11.03;9.77;;;13.40;81.90;;;15.86;56.31;100582.09;5124941;27;20199;-55
2023/03/22 06:55:52;;;;;;;11.77;9.20;;;13.40;81.80;;;15.87;56.23;100579.25;5137644;27;20329;-57
2023/03/22 06:58:21;;;;;;;13.13;9.50;;;13.40;81.70;;;15.97;56.13;100579.63;5110519;28;20295;-60
2023/03/22 07:00:48;;;;;;;10.90;9.80;;;13.50;81.70;;;16.01;55.95;100578.16;5106559;28;20557;-56
2023/03/22 07:03:17;;;;;;;11.63;9.70;;;13.50;81.70;;;16.12;55.88;100573.97;5096181;28;20247;-56
2023/03/22 07:05:44;;;;;;;13.63;10.40;;;13.60;81.80;;;16.22;55.34;100575.16;5096734;28;20189;-57
2023/03/22 07:08:11;;;;;;;10.03;9.07;;;13.60;81.60;;;16.21;55.42;100575.38;5116830;27;20658;-58
2023/03/22 07:10:38;;;;;;;14.30;10.00;;;13.60;81.40;;;16.27;55.83;100575.31;5117857;27;20265;-55
2023/03/22 07:13:05;;;;;;;9.90;8.90;;;13.70;81.40;;;16.47;55.25;100569.03;5112127;28;20265;-57
2023/03/22 07:15:33;;;;;;;11.47;9.40;;;13.80;81.50;;;16.54;54.65;100575.16;5096584;28;20193;-57
2023/03/22 07:18:01;;;;;;;12.43;9.47;;;13.90;80.90;;;16.54;54.60;100564.50;5117735;28;20195;-55
2023/03/22 07:20:31;;;;;;;11.67;9.40;;;13.90;80.40;;;16.53;54.73;100573.50;5111380;27;20275;-56
2023/03/22 07:23:02;;;;;;;10.40;9.13;;;14.00;80.30;;;16.54;54.45;100569.84;5098740;28;20289;-57
2023/03/22 07:25:29;;;;;;;10.20;9.20;;;14.00;80.00;;;16.62;54.39;100566.88;5109959;28;20194;-56
2023/03/22 07:27:59;;;;;;;9.30;8.40;;;14.10;80.20;;;16.59;54.87;100562.03;5109137;28;20237;-55
2023/03/22 07:30:26;;;;;;;10.40;8.90;;;14.10;80.00;;;16.60;54.41;100553.00;5111706;28;20203;-55
2023/03/22 07:32:53;;;;;;;12.17;8.90;;;14.10;79.90;;;16.49;54.45;100551.03;5099045;28;20212;-57
2023/03/22 07:35:20;;;;;;;9.67;8.07;;;14.10;79.80;;;16.52;54.50;100547.97;5115980;28;20192;-61
2023/03/22 07:37:48;;;;;;;11.63;8.80;;;14.10;79.70;;;16.57;54.53;100551.59;5119025;28;20274;-58
2023/03/22 07:40:15;;;;;;;13.10;8.50;;;14.10;79.80;;;16.46;54.49;100540.84;5116821;28;20195;-57
2023/03/22 07:42:42;;;;;;;10.40;8.23;;;14.10;79.70;;;16.38;54.88;100538.47;5117731;28;20211;-56
2023/03/22 07:45:10;;;;;;;11.20;8.90;;;14.10;79.80;;;16.32;55.43;100537.47;5117230;28;20929;-54
2023/03/22 07:47:37;;;;;;;9.07;8.17;;;14.10;79.90;;;16.30;55.38;100528.09;5116366;28;20590;-57
2023/03/22 07:50:12;;;;;;;10.80;8.47;;;14.00;79.70;;;16.32;55.11;100534.00;5112708;28;20191;-58
2023/03/22 07:52:39;;;;;;;11.03;8.20;;;14.00;79.80;;;16.40;55.28;100528.44;5098796;27;20276;-57
2023/03/22 07:55:12;;;;;;;9.63;8.20;;;14.10;79.90;;;16.43;54.77;100525.31;5119191;27;20204;-57
2023/03/22 07:57:39;;;;;;;10.47;8.37;;;14.00;79.60;;;16.45;54.92;100524.06;5116421;28;20188;-56
2023/03/22 08:00:11;;;;;;;9.30;8.30;;;14.10;79.70;;;16.49;54.74;100519.16;5112977;28;20192;-55
2023/03/22 08:02:38;;;;;;;8.23;7.40;;;14.10;79.40;;;16.54;54.67;100516.69;5094990;28;20210;-56
2023/03/22 08:05:06;;;;;;;11.03;8.90;;;14.20;79.30;;;16.61;54.57;100512.13;5097027;28;20233;-57
2023/03/22 08:07:33;;;;;;;9.53;7.50;;;14.20;79.20;;;16.67;54.30;100521.88;5120614;27;20191;-58
2023/03/22 08:10:00;;;;;;;11.63;7.87;;;14.30;79.00;;;16.88;53.83;100513.47;5114817;28;20611;-54
2023/03/22 08:12:30;;;;;;;9.43;7.97;;;14.40;79.30;;;17.16;53.55;100516.44;5114072;28;20261;-57
2023/03/22 08:14:57;;;;;;;8.63;6.60;;;14.50;79.20;;;17.59;52.46;100511.78;5115305;28;20207;-56
2023/03/22 08:17:25;;;;;;;8.63;6.80;;;14.60;79.50;;;17.91;51.82;100509.72;5115589;28;20195;-59
2023/03/22 08:19:55;;;;;;;9.27;7.10;;;14.90;78.40;;;18.13;51.00;100510.00;5115116;28;20237;-56
2023/03/22 08:22:24;;;;;;;7.50;6.73;;;15.10;77.10;;;18.22;50.14;100505.94;5113210;28;20208;-56
2023/03/22 08:24:52;;;;;;;8.87;6.70;;;15.20;75.90;;;18.36;49.93;100496.69;5099673;28;20292;-56
2023/03/22 08:27:19;;;;;;;8.60;7.03;;;15.40;75.60;;;18.33;49.39;100496.34;5098966;28;20188;-57
2023/03/22 08:29:48;;;;;;;8.73;6.53;;;15.50;74.60;;;18.24;49.61;100487.88;5099362;28;20517;-57
2023/03/22 08:32:16;;;;;;;8.97;6.23;;;15.60;74.30;;;18.31;49.53;100493.91;5097485;28;20723;-57
2023/03/22 08:34:44;;;;;;;10.67;6.37;;;15.60;74.00;;;18.34;49.34;100492.63;5110139;28;20224;-56
2023/03/22 08:37:12;;;;;;;9.40;5.80;;;15.70;73.70;;;18.57;48.63;100492.66;5118132;28;20660;-58
2023/03/22 08:39:39;;;;;;;8.53;5.90;;;15.80;73.10;;;18.57;48.92;100495.31;5116392;28;20281;-57
2023/03/22 08:42:06;;;;;;;9.43;6.07;;;15.90;72.70;;;18.80;47.78;100498.78;5096628;28;20189;-58
2023/03/22 08:44:34;;;;;;;7.97;5.17;;;16.00;72.20;;;19.06;47.91;100491.31;5097430;28;20216;-56
2023/03/22 08:47:02;;;;;;;12.17;6.03;;;16.10;72.00;;;19.51;46.43;100489.56;5098864;28;20196;-57
2023/03/22 08:49:30;;;;;;;9.07;5.60;;;16.30;71.00;;;19.53;45.89;100488.28;5096719;28;20185;-58
2023/03/22 08:51:57;;;;;;;8.03;5.00;;;16.50;70.00;;;19.47;46.19;100477.72;5088405;28;20200;-57
2023/03/22 08:54:26;;;;;;;5.37;4.80;;;16.70;70.30;;;19.56;45.72;100470.97;5131576;27;20215;-56
2023/03/22 08:56:54;;;;;;;8.70;5.57;;;16.70;69.10;;;19.36;45.73;100475.94;5140259;27;20664;-57
2023/03/22 08:59:21;;;;;;;8.20;4.87;;;16.70;68.80;;;19.34;46.52;100484.16;5140256;27;20335;-57
2023/03/22 09:01:48;;;;;;;6.17;4.50;;;16.70;69.20;;;19.50;46.21;100480.75;5122294;27;20712;-58
2023/03/22 09:04:16;;;;;;;7.30;4.73;;;16.80;69.60;;;19.63;46.24;100476.97;5114888;28;20319;-56
2023/03/22 09:06:44;;;;;;;7.23;5.43;;;16.80;69.20;;;19.71;45.55;100489.94;5102493;28;20284;-57
2023/03/22 09:09:11;;;;;;;7.60;4.57;;;16.80;68.40;;;19.96;44.65;100476.22;5128864;27;20214;-55
2023/03/22 09:11:40;;;;;;;5.87;4.17;;;16.90;68.00;;;20.21;43.24;100482.75;5102784;27;20207;-57
2023/03/22 09:14:07;;;;;;;8.20;4.63;;;17.00;66.80;;;20.27;43.16;100478.34;5108367;28;20295;-54
2023/03/22 09:16:34;;;;;;;7.87;4.43;;;17.20;66.20;;;20.17;43.49;100478.16;5589194;22;20777;-56
2023/03/22 09:19:02;;;;;;;7.73;4.50;;;17.30;66.20;;;20.05;44.39;100469.41;5073512;28;20197;-57
2023/03/22 09:21:30;;;;;;;6.50;4.50;;;17.30;66.50;;;20.01;44.02;100466.41;5066252;28;20268;-53
2023/03/22 09:23:57;;;;;;;6.50;4.30;;;17.30;66.10;;;19.85;43.63;100464.53;5053261;28;20725;-55
2023/03/22 09:26:25;;;;;;;7.90;7.10;;;17.20;65.40;;;19.74;44.47;100460.06;5053607;28;20371;-56
2023/03/22 09:28:53;;;;;;;6.33;3.90;;;17.10;66.00;;;19.71;44.48;100463.22;5029789;28;20230;-57
2023/03/22 09:31:21;;;;;;;6.50;4.33;;;17.10;66.50;;;19.63;44.39;100452.94;5019164;28;20331;-57
2023/03/22 09:33:48;;;;;;;5.77;3.77;;;17.00;65.70;;;19.44;43.62;100449.69;5020999;28;20333;-57
2023/03/22 09:36:15;;;;;;;5.83;3.67;;;16.80;64.80;;;19.34;44.41;100456.66;5022406;28;20194;-55
2023/03/22 09:38:45;;;;;;;7.20;3.50;;;16.80;65.00;;;19.29;44.80;100448.53;5033212;28;20666;-57
2023/03/22 10:15:05;;;;;;;7.13;3.43;;;15.10;68.80;;;18.92;45.24;100486.22;5120537;27;20564;-62
2023/03/22 10:17:36;;;;;;;5.87;2.63;;;15.90;67.80;;;19.09;44.67;100474.84;5106274;28;20287;-60
2023/03/22 10:20:16;;;;;;;6.03;2.93;;;16.10;67.30;;;19.19;44.11;100469.69;5090870;28;20511;-60
2023/03/22 10:22:46;;;;;;;5.70;3.10;;;16.20;66.20;;;19.13;44.04;100465.31;5099846;28;20573;-62
2023/03/22 10:25:20;;;;;;;4.27;2.87;;;16.30;65.40;;;19.35;44.00;100468.97;5096515;28;20223;-60
2023/03/22 10:27:50;;;;;;;4.57;3.00;;;16.40;65.60;;;19.58;43.56;100463.53;5089715;28;20183;-61
2023/03/22 10:30:23;;;;;;;4.50;4.10;;;16.60;65.10;;;19.69;43.21;100465.31;5090830;28;20188;-60
2023/03/22 10:32:59;;;;;;;7.30;2.93;;;16.70;64.70;;;19.92;43.18;100465.19;5100877;28;20192;-61
2023/03/22 10:35:29;;;;;;;4.07;2.50;;;16.80;64.60;;;20.05;42.27;100464.88;5111005;28;20212;-61
2023/03/22 10:38:00;;;;;;;6.33;3.20;;;16.90;64.00;;;20.02;42.10;100459.19;5111320;28;20483;-61
2023/03/22 10:40:31;;;;;;;6.70;3.30;;;17.00;63.00;;;20.03;42.47;100472.34;5110169;28;20194;-60
2023/03/22 10:43:04;;;;;;;5.03;2.67;;;17.10;62.90;;;19.89;42.47;100463.00;5099076;28;20216;-58
2023/03/22 10:45:35;;;;;;;5.77;2.50;;;17.10;62.50;;;19.96;42.04;100482.38;5099827;28;20916;-60
2023/03/22 10:48:15;;;;;;;6.10;3.60;;;17.10;62.40;;;19.88;42.07;100477.41;5102636;28;20263;-61
2023/03/22 10:50:46;;;;;;;3.60;2.50;;;17.10;61.90;;;19.88;41.72;100488.09;5105385;28;20191;-62
2023/03/22 10:53:27;;;;;;;4.67;2.40;;;17.10;61.70;;;19.56;42.26;100481.66;5099099;28;20192;-61